Flight Track Log - Related Links

Times and Time Zones

All times are in EDT time to prevent confusion due to time zone crossing. See the AWE1454 flight status page for this flight to view local times or setup timezone preferences in your user account.

Time Position Orientation Groundspeed Altitude Reporting Facility
EDT Latitude Longitude Course Direction KTS MPH feet Rate Location/Type
Wed 01:01:37 PM 33.6333 -84.3667 53° Northeast 176 203 2,700  Level Atlanta TRACON
Wed 01:02:00 PM 33.8398 -84.1649 73° East  Level Estimated
Wed 01:02:37 PM 33.6333 -84.3000 90° East 220 253 4,900  Level Atlanta TRACON
Wed 01:03:00 PM 33.9073 -84.0769 54° Northeast  Level Estimated
Wed 01:03:37 PM 33.6333 -84.2167 90° East 262 302 7,800  Level Atlanta TRACON
Wed 01:04:00 PM 33.8910 -83.9587 99° East  Level FlightAware Approximate
Wed 01:05:00 PM 33.9591 -83.8712 48° Northeast  Level Estimated
Wed 01:05:40 PM 33.6858 -84.0314 71° East 296 341 12,100  Level Atlanta Center
Wed 01:06:00 PM 34.0271 -83.7836 53° Northeast  Level Estimated
Wed 01:06:40 PM 33.7525 -83.9464 47° Northeast 327 376 14,400  Level Atlanta Center
Wed 01:07:40 PM 33.8233 -83.8564 47° Northeast 348 400 16,800 2,150 Climbing Atlanta Center
Wed 01:08:40 PM 33.8942 -83.7611 48° Northeast 363 418 18,700 2,000 Climbing Atlanta Center
Wed 01:09:40 PM 33.9647 -83.6631 49° Northeast 375 432 20,800 1,900 Climbing Atlanta Center
Wed 01:10:40 PM 34.0292 -83.5600 53° Northeast 386 444 22,500 1,550 Climbing Atlanta Center
Wed 01:11:40 PM 34.0997 -83.4467 53° Northeast 404 465 23,900 750 Climbing Atlanta Center
Wed 01:12:40 PM 34.1575 -83.3283 59° Northeast 414 476 24,000 550 Climbing Atlanta Center
Wed 01:13:40 PM 34.2108 -83.1997 63° Northeast 414 476 25,000 1,250 Climbing Atlanta Center
Wed 01:14:40 PM 34.2683 -83.0711 62° Northeast 420 483 26,500 1,450 Climbing Atlanta Center
Wed 01:15:40 PM 34.3383 -82.9519 55° Northeast 432 497 27,900 1,200 Climbing Atlanta Center
Wed 01:16:40 PM 34.4103 -82.8278 55° Northeast 439 505 28,900 900 Climbing Atlanta Center
Wed 01:17:40 PM 34.4781 -82.7158 54° Northeast 445 512 29,700 1,200 Climbing Atlanta Center
Wed 01:18:40 PM 34.5619 -82.5758 54° Northeast 461 531 31,300 1,300 Climbing Atlanta Center
Wed 01:19:40 PM 34.6356 -82.4533 54° Northeast 456 525 32,300 850 Climbing Atlanta Center
Wed 01:20:40 PM 34.7089 -82.3231 56° Northeast 461 531 33,000 350 Climbing Atlanta Center
Wed 01:21:40 PM 34.7883 -82.1925 53° Northeast 461 531 33,000  Level Atlanta Center
Wed 01:22:40 PM 34.8678 -82.0567 54° Northeast 472 543 33,000  Level Atlanta Center
Wed 01:23:40 PM 34.9469 -81.9256 54° Northeast 478 550 33,000  Level Atlanta Center
Wed 01:24:40 PM 35.0236 -81.7864 56° Northeast 485 558 33,000  Level Atlanta Center
Wed 01:25:40 PM 35.0925 -81.6706 54° Northeast 480 552 33,000  Level Atlanta Center
Wed 01:26:40 PM 35.1650 -81.5414 56° Northeast 474 545 33,000  Level Atlanta Center
Wed 01:27:40 PM 35.2375 -81.4119 56° Northeast 463 533 33,000  Level Atlanta Center
Wed 01:28:40 PM 35.3117 -81.2797 55° Northeast 463 533 33,000  Level Atlanta Center
Wed 01:29:40 PM 35.3881 -81.1500 54° Northeast 463 533 33,000  Level Atlanta Center
Wed 01:30:40 PM 35.4600 -81.0172 56° Northeast 463 533 33,000  Level Atlanta Center
Wed 01:31:40 PM 35.5339 -80.8894 55° Northeast 463 533 33,000  Level Atlanta Center
Wed 01:32:40 PM 35.6097 -80.7589 54° Northeast 463 533 33,000  Level Atlanta Center
Wed 01:33:40 PM 35.6833 -80.6281 55° Northeast 458 527 33,000  Level Atlanta Center
Wed 01:36:04 PM 35.8539 -80.3228 55° Northeast 449 517 33,000  Level Washington Center
Wed 01:37:02 PM 35.9236 -80.1936 56° Northeast 449 517 33,000  Level Washington Center
Wed 01:38:02 PM 36.0017 -80.0594 54° Northeast 449 517 33,000  Level Washington Center
Wed 01:39:03 PM 36.0733 -79.9300 56° Northeast 449 517 33,000  Level Washington Center
Wed 01:40:03 PM 36.1467 -79.8028 54° Northeast 449 517 33,000  Level Washington Center
Wed 01:41:04 PM 36.2181 -79.6728 56° Northeast 454 522 33,000  Level Washington Center
Wed 01:42:04 PM 36.2889 -79.5500 54° Northeast 447 514 33,000  Level Washington Center
Wed 01:43:05 PM 36.3619 -79.4197 55° Northeast 447 514 33,000  Level Washington Center
Wed 01:44:02 PM 36.4242 -79.3014 57° Northeast 447 514 33,000  Level Washington Center
Wed 01:45:03 PM 36.4969 -79.1731 55° Northeast 452 520 33,000  Level Washington Center
Wed 01:46:04 PM 36.5781 -79.0344 54° Northeast 452 520 33,000  Level Washington Center
Wed 01:47:04 PM 36.6506 -78.9031 55° Northeast 452 520 33,000  Level Washington Center
Wed 01:48:02 PM 36.7189 -78.7739 57° Northeast 452 520 33,000  Level Washington Center
Wed 01:49:02 PM 36.7889 -78.6472 55° Northeast 446 513 33,000  Level Washington Center
Wed 01:50:03 PM 36.8358 -78.5269 64° Northeast 434 499 33,000 -393 Level Washington Center
Wed 01:51:04 PM 36.8583 -78.3642 80° East 421 484 32,200 -496 Descending Washington Center
Wed 01:52:04 PM 36.8722 -78.2117 83° East 429 494 32,000 -356 Descending Washington Center
Wed 01:53:02 PM 36.9125 -78.0831 69° East 435 501 31,500 -508 Descending Washington Center
Wed 01:54:02 PM 37.0081 -78.0003 35° Northeast 404 465 31,000 -248 Descending Washington Center
Wed 01:55:03 PM 37.1078 -77.9253 31° Northeast 390 449 31,000  Level Washington Center
Wed 01:56:03 PM 37.2114 -77.8528 29° Northeast 409 471 31,000  Level Washington Center
Wed 01:57:04 PM 37.3106 -77.7800 30° Northeast 414 476 31,000  Level Washington Center
Wed 01:58:04 PM 37.4122 -77.7044 31° Northeast 419 482 31,000  Level Washington Center
Wed 01:59:02 PM 37.5114 -77.6314 30° Northeast 419 482 31,000  Level Washington Center
Wed 02:00:02 PM 37.6128 -77.5581 30° Northeast 414 476 31,000  Level Washington Center
Wed 02:01:03 PM 37.7142 -77.4872 29° Northeast 414 476 31,000  Level Washington Center
Wed 02:02:03 PM 37.8133 -77.4108 31° Northeast 414 476 31,000  Level Washington Center
Wed 02:03:04 PM 37.9144 -77.3342 31° Northeast 414 476 31,000  Level Washington Center
Wed 02:04:04 PM 38.0261 -77.2550 29° Northeast 414 476 31,000  Level Washington Center
Wed 02:05:02 PM 38.1167 -77.1883 30° Northeast 414 476 31,000  Level Washington Center
Wed 02:06:03 PM 38.2219 -77.1089 31° Northeast 430 495 31,000  Level Washington Center
Wed 02:07:03 PM 38.3231 -77.0342 30° Northeast 430 495 31,000 -350 Level Washington Center
Wed 02:08:03 PM 38.4239 -76.9619 29° Northeast 420 483 30,300  Descending Washington Center
Wed 02:09:04 PM 38.5286 -76.9344 12° North 392 451 31,000 -1,636 Climbing Washington Center
Wed 02:10:04 PM 38.6208 -76.8936 19° North 373 429 27,000 -3,102 Descending Washington Center
Wed 02:11:02 PM 38.6803 -76.7911 53° Northeast 341 392 24,900 -1,831 Descending Washington Center
Wed 02:12:02 PM 38.7356 -76.6775 58° Northeast 341 392 23,400 -1,636 Descending Washington Center
Wed 02:13:03 PM 38.7447 -76.5553 84° East 336 387 21,600 -1,636 Descending Washington Center
Wed 02:14:03 PM 38.7664 -76.4408 76° East 336 387 20,100 -1,438 Descending Washington Center
Wed 02:15:04 PM 38.7881 -76.3267 76° East 329 379 18,700 -1,311 Descending Washington Center
Wed 02:16:02 PM 38.8117 -76.2178 74° East 319 367 17,500 -1,475 Descending Washington Center
Wed 02:17:02 PM 38.8414 -76.0981 72° East 319 367 15,800 -1,289 Descending Washington Center
Wed 02:18:03 PM 38.8625 -75.9942 75° East 313 360 14,900 -446 Descending Washington Center
Wed 02:19:03 PM 38.8817 -75.8875 77° East 308 354 14,900  Level Washington Center
Wed 02:20:04 PM 38.9278 -75.8025 55° Northeast 302 348 14,900  Level Washington Center
Wed 02:21:02 PM 38.9967 -75.7386 36° Northeast 284 327 14,900 -454 Level Washington Center
Wed 02:22:03 PM 39.0656 -75.6797 34° Northeast 284 327 14,000 -1,390 Descending Washington Center
Wed 02:23:59 PM 39.2333 -75.6667 North 292 336 10,800 -1,364 Descending Philadelphia TRACON
Wed 02:24:59 PM 39.3000 -75.6333 21° North 280 322 10,000 -1,238 Descending Philadelphia TRACON
Wed 02:26:05 PM 39.3667 -75.5833 30° Northeast 275 316 8,200 -1,429 Descending Philadelphia TRACON
Wed 02:27:05 PM 39.4167 -75.5167 46° Northeast 264 304 7,000 -600 Descending Philadelphia TRACON
Wed 02:28:05 PM 39.4667 -75.4333 52° Northeast 265 305 7,000 -400 Level Philadelphia TRACON
Wed 02:29:05 PM 39.5333 -75.4000 21° North 275 316 6,200 -500 Descending Philadelphia TRACON
Wed 02:30:05 PM 39.6167 -75.4000 360° North 265 305 6,000 -150 Descending Philadelphia TRACON
Wed 02:31:05 PM 39.6833 -75.4000 360° North 266 306 5,900 -238 Descending Philadelphia TRACON
Wed 02:32:11 PM 39.7167 -75.4667 303° West 212 244 5,500 -429 Descending Philadelphia TRACON
Wed 02:33:11 PM 39.7000 -75.5500 255° West 202 232 5,000 -400 Descending Philadelphia TRACON
Wed 02:34:11 PM 39.7167 -75.6000 293° West 191 220 4,700 -600 Descending Philadelphia TRACON
Wed 02:35:11 PM 39.7667 -75.5833 14° North 179 206 3,800 -850 Descending Philadelphia TRACON
Wed 02:36:11 PM 39.8000 -75.5333 49° Northeast 174 200 3,000 -381 Descending Philadelphia TRACON
Wed 02:37:17 PM 39.8167 -75.4833 67° East 175 201 3,000  Level Philadelphia TRACON

Login

Don't have an account? Register now (free) for customized features, flight alerts, and more!